sensor_id;sensor_type;location;lat;lon;timestamp;P1;durP1;ratioP1;P2;durP2;ratioP2
17151;SDS011;8691;50.828;4.700;2023-05-10T00:00:59;11.23;;;5.90;;
17151;SDS011;8691;50.828;4.700;2023-05-10T00:03:26;9.60;;;5.93;;
17151;SDS011;8691;50.828;4.700;2023-05-10T00:05:53;8.23;;;5.40;;
17151;SDS011;8691;50.828;4.700;2023-05-10T00:08:20;8.40;;;5.73;;
17151;SDS011;8691;50.828;4.700;2023-05-10T00:10:46;7.73;;;5.90;;
17151;SDS011;8691;50.828;4.700;2023-05-10T00:13:13;9.17;;;6.07;;
17151;SDS011;8691;50.828;4.700;2023-05-10T00:15:40;13.40;;;5.93;;
17151;SDS011;8691;50.828;4.700;2023-05-10T00:18:06;8.23;;;5.80;;
17151;SDS011;8691;50.828;4.700;2023-05-10T00:20:33;10.20;;;6.27;;
17151;SDS011;8691;50.828;4.700;2023-05-10T00:22:59;10.13;;;6.13;;
17151;SDS011;8691;50.828;4.700;2023-05-10T00:25:26;8.33;;;6.37;;
17151;SDS011;8691;50.828;4.700;2023-05-10T00:27:53;7.73;;;5.67;;
17151;SDS011;8691;50.828;4.700;2023-05-10T00:30:20;9.40;;;6.77;;
17151;SDS011;8691;50.828;4.700;2023-05-10T00:32:47;9.83;;;5.93;;
17151;SDS011;8691;50.828;4.700;2023-05-10T00:35:14;9.17;;;6.30;;
17151;SDS011;8691;50.828;4.700;2023-05-10T00:37:41;8.10;;;6.47;;
17151;SDS011;8691;50.828;4.700;2023-05-10T00:40:07;9.50;;;7.23;;
17151;SDS011;8691;50.828;4.700;2023-05-10T00:42:34;13.20;;;6.60;;
17151;SDS011;8691;50.828;4.700;2023-05-10T00:45:00;12.37;;;6.83;;
17151;SDS011;8691;50.828;4.700;2023-05-10T00:47:27;10.97;;;6.87;;
17151;SDS011;8691;50.828;4.700;2023-05-10T00:49:54;9.47;;;6.63;;
17151;SDS011;8691;50.828;4.700;2023-05-10T00:52:20;8.73;;;6.90;;
17151;SDS011;8691;50.828;4.700;2023-05-10T00:54:47;10.70;;;6.70;;
17151;SDS011;8691;50.828;4.700;2023-05-10T00:57:14;9.83;;;6.67;;
17151;SDS011;8691;50.828;4.700;2023-05-10T00:59:41;10.73;;;6.50;;
17151;SDS011;8691;50.828;4.700;2023-05-10T01:02:08;11.83;;;7.40;;
17151;SDS011;8691;50.828;4.700;2023-05-10T01:04:35;13.60;;;7.97;;
17151;SDS011;8691;50.828;4.700;2023-05-10T01:07:02;10.90;;;7.67;;
17151;SDS011;8691;50.828;4.700;2023-05-10T01:09:28;12.37;;;6.73;;
17151;SDS011;8691;50.828;4.700;2023-05-10T01:11:55;11.63;;;7.13;;
17151;SDS011;8691;50.828;4.700;2023-05-10T01:14:21;11.23;;;7.43;;
17151;SDS011;8691;50.828;4.700;2023-05-10T01:16:49;11.27;;;7.17;;
17151;SDS011;8691;50.828;4.700;2023-05-10T01:19:19;10.03;;;7.37;;
17151;SDS011;8691;50.828;4.700;2023-05-10T01:21:49;9.77;;;7.60;;
17151;SDS011;8691;50.828;4.700;2023-05-10T01:27:20;11.50;;;7.30;;
17151;SDS011;8691;50.828;4.700;2023-05-10T01:32:34;10.33;;;6.93;;
17151;SDS011;8691;50.828;4.700;2023-05-10T01:37:46;12.75;;;9.48;;
17151;SDS011;8691;50.828;4.700;2023-05-10T01:43:04;11.50;;;7.30;;
17151;SDS011;8691;50.828;4.700;2023-05-10T01:45:32;13.95;;;9.75;;
17151;SDS011;8691;50.828;4.700;2023-05-10T01:48:10;13.23;;;9.57;;
17151;SDS011;8691;50.828;4.700;2023-05-10T01:50:37;12.40;;;9.85;;
17151;SDS011;8691;50.828;4.700;2023-05-10T01:53:03;12.40;;;9.77;;
17151;SDS011;8691;50.828;4.700;2023-05-10T01:55:30;13.53;;;8.10;;
17151;SDS011;8691;50.828;4.700;2023-05-10T01:57:59;11.10;;;7.47;;
17151;SDS011;8691;50.828;4.700;2023-05-10T02:00:23;10.90;;;7.60;;
17151;SDS011;8691;50.828;4.700;2023-05-10T02:02:49;12.03;;;7.43;;
17151;SDS011;8691;50.828;4.700;2023-05-10T02:05:16;10.37;;;7.63;;
17151;SDS011;8691;50.828;4.700;2023-05-10T02:07:42;12.27;;;8.07;;
17151;SDS011;8691;50.828;4.700;2023-05-10T02:10:09;11.70;;;8.27;;
17151;SDS011;8691;50.828;4.700;2023-05-10T02:12:36;12.67;;;7.67;;
17151;SDS011;8691;50.828;4.700;2023-05-10T02:15:03;16.23;;;7.87;;
17151;SDS011;8691;50.828;4.700;2023-05-10T02:17:30;14.30;;;10.27;;
17151;SDS011;8691;50.828;4.700;2023-05-10T02:19:57;9.50;;;8.07;;
17151;SDS011;8691;50.828;4.700;2023-05-10T02:22:23;10.23;;;8.03;;
17151;SDS011;8691;50.828;4.700;2023-05-10T02:24:51;9.93;;;7.77;;
17151;SDS011;8691;50.828;4.700;2023-05-10T02:27:17;14.53;;;8.80;;
17151;SDS011;8691;50.828;4.700;2023-05-10T02:29:45;13.10;;;8.77;;
17151;SDS011;8691;50.828;4.700;2023-05-10T02:32:11;13.30;;;8.90;;
17151;SDS011;8691;50.828;4.700;2023-05-10T02:34:39;14.43;;;9.30;;
17151;SDS011;8691;50.828;4.700;2023-05-10T02:37:05;14.87;;;9.30;;
17151;SDS011;8691;50.828;4.700;2023-05-10T02:39:33;13.20;;;8.70;;
17151;SDS011;8691;50.828;4.700;2023-05-10T02:41:59;12.03;;;8.70;;
17151;SDS011;8691;50.828;4.700;2023-05-10T02:44:26;14.77;;;9.10;;
17151;SDS011;8691;50.828;4.700;2023-05-10T02:46:52;14.40;;;8.80;;
17151;SDS011;8691;50.828;4.700;2023-05-10T02:49:19;12.03;;;8.67;;
17151;SDS011;8691;50.828;4.700;2023-05-10T02:51:47;12.37;;;8.87;;
17151;SDS011;8691;50.828;4.700;2023-05-10T02:54:18;16.47;;;8.67;;
17151;SDS011;8691;50.828;4.700;2023-05-10T02:56:42;12.03;;;9.37;;
17151;SDS011;8691;50.828;4.700;2023-05-10T02:59:09;13.37;;;8.93;;
17151;SDS011;8691;50.828;4.700;2023-05-10T03:01:36;12.70;;;9.30;;
17151;SDS011;8691;50.828;4.700;2023-05-10T03:04:02;12.33;;;8.83;;
17151;SDS011;8691;50.828;4.700;2023-05-10T03:06:29;13.63;;;9.10;;
17151;SDS011;8691;50.828;4.700;2023-05-10T03:08:55;12.90;;;8.90;;
17151;SDS011;8691;50.828;4.700;2023-05-10T03:14:13;13.60;;;9.20;;
17151;SDS011;8691;50.828;4.700;2023-05-10T03:17:27;12.87;;;9.20;;
17151;SDS011;8691;50.828;4.700;2023-05-10T03:19:14;16.00;;;11.97;;
17151;SDS011;8691;50.828;4.700;2023-05-10T03:21:51;14.10;;;9.37;;
17151;SDS011;8691;50.828;4.700;2023-05-10T03:24:17;13.23;;;9.00;;
17151;SDS011;8691;50.828;4.700;2023-05-10T03:26:44;16.42;;;11.68;;
17151;SDS011;8691;50.828;4.700;2023-05-10T03:29:11;11.33;;;9.33;;
17151;SDS011;8691;50.828;4.700;2023-05-10T03:31:38;10.87;;;7.97;;
17151;SDS011;8691;50.828;4.700;2023-05-10T03:34:04;12.60;;;8.13;;
17151;SDS011;8691;50.828;4.700;2023-05-10T03:36:31;9.87;;;7.63;;
17151;SDS011;8691;50.828;4.700;2023-05-10T03:38:59;13.80;;;10.30;;
17151;SDS011;8691;50.828;4.700;2023-05-10T03:41:26;12.85;;;10.55;;
17151;SDS011;8691;50.828;4.700;2023-05-10T03:43:53;14.83;;;8.07;;
17151;SDS011;8691;50.828;4.700;2023-05-10T03:46:20;13.23;;;8.60;;
17151;SDS011;8691;50.828;4.700;2023-05-10T03:48:47;10.67;;;8.10;;
17151;SDS011;8691;50.828;4.700;2023-05-10T03:51:14;12.83;;;7.57;;
17151;SDS011;8691;50.828;4.700;2023-05-10T03:53:41;13.27;;;9.23;;
17151;SDS011;8691;50.828;4.700;2023-05-10T03:56:08;13.77;;;8.07;;
17151;SDS011;8691;50.828;4.700;2023-05-10T03:58:35;11.77;;;8.57;;
17151;SDS011;8691;50.828;4.700;2023-05-10T04:01:02;12.67;;;8.73;;
17151;SDS011;8691;50.828;4.700;2023-05-10T04:03:29;12.77;;;8.17;;
17151;SDS011;8691;50.828;4.700;2023-05-10T04:05:59;13.90;;;8.30;;
17151;SDS011;8691;50.828;4.700;2023-05-10T04:08:25;12.63;;;8.90;;
17151;SDS011;8691;50.828;4.700;2023-05-10T04:10:52;9.63;;;7.50;;
17151;SDS011;8691;50.828;4.700;2023-05-10T04:13:18;11.23;;;8.17;;
17151;SDS011;8691;50.828;4.700;2023-05-10T04:15:45;11.13;;;7.60;;
17151;SDS011;8691;50.828;4.700;2023-05-10T04:18:12;11.43;;;7.63;;
17151;SDS011;8691;50.828;4.700;2023-05-10T04:20:38;14.87;;;8.77;;
17151;SDS011;8691;50.828;4.700;2023-05-10T04:23:05;10.90;;;8.07;;
17151;SDS011;8691;50.828;4.700;2023-05-10T04:25:33;10.43;;;7.57;;
17151;SDS011;8691;50.828;4.700;2023-05-10T04:27:58;10.17;;;7.57;;
17151;SDS011;8691;50.828;4.700;2023-05-10T04:30:25;10.03;;;7.30;;
17151;SDS011;8691;50.828;4.700;2023-05-10T04:32:52;13.87;;;7.47;;
17151;SDS011;8691;50.828;4.700;2023-05-10T04:35:19;9.83;;;6.67;;
17151;SDS011;8691;50.828;4.700;2023-05-10T04:37:46;9.77;;;6.70;;
17151;SDS011;8691;50.828;4.700;2023-05-10T04:40:13;10.53;;;7.37;;
17151;SDS011;8691;50.828;4.700;2023-05-10T04:42:40;10.40;;;7.20;;
17151;SDS011;8691;50.828;4.700;2023-05-10T04:45:09;11.20;;;7.73;;
17151;SDS011;8691;50.828;4.700;2023-05-10T04:47:36;10.50;;;8.63;;
17151;SDS011;8691;50.828;4.700;2023-05-10T04:50:03;14.60;;;9.17;;
17151;SDS011;8691;50.828;4.700;2023-05-10T04:52:29;11.13;;;8.20;;
17151;SDS011;8691;50.828;4.700;2023-05-10T04:54:56;15.13;;;10.33;;
17151;SDS011;8691;50.828;4.700;2023-05-10T04:57:23;16.53;;;10.63;;
17151;SDS011;8691;50.828;4.700;2023-05-10T04:59:50;17.73;;;10.70;;
17151;SDS011;8691;50.828;4.700;2023-05-10T05:02:16;16.60;;;11.27;;
17151;SDS011;8691;50.828;4.700;2023-05-10T05:04:43;15.63;;;10.97;;
17151;SDS011;8691;50.828;4.700;2023-05-10T05:07:10;15.20;;;9.97;;
17151;SDS011;8691;50.828;4.700;2023-05-10T05:09:36;18.83;;;13.90;;
17151;SDS011;8691;50.828;4.700;2023-05-10T05:12:03;18.15;;;14.60;;
17151;SDS011;8691;50.828;4.700;2023-05-10T05:14:30;18.58;;;14.62;;
17151;SDS011;8691;50.828;4.700;2023-05-10T05:16:58;20.27;;;15.33;;
17151;SDS011;8691;50.828;4.700;2023-05-10T05:19:25;16.60;;;11.93;;
17151;SDS011;8691;50.828;4.700;2023-05-10T05:21:51;16.40;;;11.70;;
17151;SDS011;8691;50.828;4.700;2023-05-10T05:24:18;17.00;;;11.67;;
17151;SDS011;8691;50.828;4.700;2023-05-10T05:26:45;16.50;;;11.13;;
17151;SDS011;8691;50.828;4.700;2023-05-10T05:29:11;16.17;;;12.20;;
17151;SDS011;8691;50.828;4.700;2023-05-10T05:31:38;15.90;;;11.50;;
17151;SDS011;8691;50.828;4.700;2023-05-10T05:34:05;16.13;;;11.77;;
17151;SDS011;8691;50.828;4.700;2023-05-10T05:36:32;20.03;;;13.03;;
17151;SDS011;8691;50.828;4.700;2023-05-10T05:38:58;18.57;;;12.73;;
17151;SDS011;8691;50.828;4.700;2023-05-10T05:41:25;22.23;;;14.43;;
17151;SDS011;8691;50.828;4.700;2023-05-10T05:43:52;17.47;;;12.83;;
17151;SDS011;8691;50.828;4.700;2023-05-10T05:46:18;19.43;;;13.83;;
17151;SDS011;8691;50.828;4.700;2023-05-10T05:48:45;17.03;;;12.73;;
17151;SDS011;8691;50.828;4.700;2023-05-10T05:51:12;20.80;;;13.23;;
17151;SDS011;8691;50.828;4.700;2023-05-10T05:53:38;20.80;;;13.77;;
17151;SDS011;8691;50.828;4.700;2023-05-10T05:56:05;18.23;;;13.27;;
17151;SDS011;8691;50.828;4.700;2023-05-10T05:58:32;24.50;;;18.27;;
17151;SDS011;8691;50.828;4.700;2023-05-10T06:00:59;22.55;;;18.10;;
17151;SDS011;8691;50.828;4.700;2023-05-10T06:03:25;20.77;;;15.53;;
17151;SDS011;8691;50.828;4.700;2023-05-10T06:05:52;19.47;;;13.80;;
17151;SDS011;8691;50.828;4.700;2023-05-10T06:08:18;20.30;;;13.90;;
17151;SDS011;8691;50.828;4.700;2023-05-10T06:10:45;20.60;;;13.93;;
17151;SDS011;8691;50.828;4.700;2023-05-10T06:13:12;18.60;;;13.53;;
17151;SDS011;8691;50.828;4.700;2023-05-10T06:15:38;18.97;;;13.67;;
17151;SDS011;8691;50.828;4.700;2023-05-10T06:18:05;19.60;;;14.10;;
17151;SDS011;8691;50.828;4.700;2023-05-10T06:20:32;17.20;;;13.73;;
17151;SDS011;8691;50.828;4.700;2023-05-10T06:22:59;22.83;;;14.23;;
17151;SDS011;8691;50.828;4.700;2023-05-10T06:25:26;16.97;;;13.17;;
17151;SDS011;8691;50.828;4.700;2023-05-10T06:27:53;11.47;;;9.80;;
17151;SDS011;8691;50.828;4.700;2023-05-10T06:30:19;9.20;;;7.23;;
17151;SDS011;8691;50.828;4.700;2023-05-10T06:32:47;6.93;;;4.63;;
17151;SDS011;8691;50.828;4.700;2023-05-10T06:35:13;5.17;;;3.50;;
17151;SDS011;8691;50.828;4.700;2023-05-10T06:37:41;2.60;;;2.40;;
17151;SDS011;8691;50.828;4.700;2023-05-10T06:40:08;3.38;;;2.45;;
17151;SDS011;8691;50.828;4.700;2023-05-10T06:42:34;2.33;;;1.47;;
17151;SDS011;8691;50.828;4.700;2023-05-10T06:45:01;1.83;;;1.47;;
17151;SDS011;8691;50.828;4.700;2023-05-10T06:47:28;1.60;;;1.50;;
17151;SDS011;8691;50.828;4.700;2023-05-10T06:49:55;1.90;;;1.53;;
17151;SDS011;8691;50.828;4.700;2023-05-10T06:52:22;2.50;;;1.20;;
17151;SDS011;8691;50.828;4.700;2023-05-10T06:54:49;4.23;;;1.60;;
17151;SDS011;8691;50.828;4.700;2023-05-10T06:57:16;1.23;;;1.13;;
17151;SDS011;8691;50.828;4.700;2023-05-10T06:59:43;1.87;;;1.43;;
17151;SDS011;8691;50.828;4.700;2023-05-10T07:02:10;1.47;;;1.30;;
17151;SDS011;8691;50.828;4.700;2023-05-10T07:04:37;1.63;;;1.30;;
17151;SDS011;8691;50.828;4.700;2023-05-10T07:07:04;1.93;;;1.30;;
17151;SDS011;8691;50.828;4.700;2023-05-10T07:09:31;2.00;;;1.50;;
17151;SDS011;8691;50.828;4.700;2023-05-10T07:11:58;2.07;;;1.73;;
17151;SDS011;8691;50.828;4.700;2023-05-10T07:14:25;2.60;;;1.90;;
17151;SDS011;8691;50.828;4.700;2023-05-10T07:16:52;1.93;;;1.57;;
17151;SDS011;8691;50.828;4.700;2023-05-10T07:19:18;2.10;;;1.73;;
17151;SDS011;8691;50.828;4.700;2023-05-10T07:21:45;1.87;;;1.63;;
17151;SDS011;8691;50.828;4.700;2023-05-10T07:24:11;1.87;;;1.73;;
17151;SDS011;8691;50.828;4.700;2023-05-10T07:26:38;3.33;;;2.00;;
17151;SDS011;8691;50.828;4.700;2023-05-10T07:29:05;5.27;;;2.20;;
17151;SDS011;8691;50.828;4.700;2023-05-10T07:31:31;2.10;;;1.90;;
17151;SDS011;8691;50.828;4.700;2023-05-10T07:33:58;2.97;;;2.00;;
17151;SDS011;8691;50.828;4.700;2023-05-10T07:36:25;4.77;;;1.80;;
17151;SDS011;8691;50.828;4.700;2023-05-10T07:38:51;1.77;;;1.67;;
17151;SDS011;8691;50.828;4.700;2023-05-10T07:41:18;1.97;;;1.73;;
17151;SDS011;8691;50.828;4.700;2023-05-10T07:43:44;3.03;;;1.60;;
17151;SDS011;8691;50.828;4.700;2023-05-10T07:46:11;4.87;;;1.67;;
17151;SDS011;8691;50.828;4.700;2023-05-10T07:48:38;2.23;;;1.67;;
17151;SDS011;8691;50.828;4.700;2023-05-10T07:51:04;2.03;;;1.80;;
17151;SDS011;8691;50.828;4.700;2023-05-10T07:53:31;3.13;;;2.00;;
17151;SDS011;8691;50.828;4.700;2023-05-10T07:55:57;2.43;;;2.10;;
17151;SDS011;8691;50.828;4.700;2023-05-10T07:58:24;2.47;;;2.23;;
17151;SDS011;8691;50.828;4.700;2023-05-10T08:00:51;3.17;;;2.50;;
17151;SDS011;8691;50.828;4.700;2023-05-10T08:03:17;2.93;;;2.50;;
17151;SDS011;8691;50.828;4.700;2023-05-10T08:05:44;5.87;;;3.20;;
17151;SDS011;8691;50.828;4.700;2023-05-10T08:08:10;3.47;;;2.80;;
17151;SDS011;8691;50.828;4.700;2023-05-10T08:10:37;4.63;;;3.40;;
17151;SDS011;8691;50.828;4.700;2023-05-10T08:13:04;4.57;;;3.80;;
17151;SDS011;8691;50.828;4.700;2023-05-10T08:15:30;5.80;;;3.67;;
17151;SDS011;8691;50.828;4.700;2023-05-10T08:17:57;6.70;;;4.37;;
17151;SDS011;8691;50.828;4.700;2023-05-10T08:20:24;7.97;;;4.57;;
17151;SDS011;8691;50.828;4.700;2023-05-10T08:22:50;6.40;;;4.00;;
17151;SDS011;8691;50.828;4.700;2023-05-10T08:25:17;6.97;;;4.47;;
17151;SDS011;8691;50.828;4.700;2023-05-10T08:27:43;5.23;;;4.43;;
17151;SDS011;8691;50.828;4.700;2023-05-10T08:30:10;5.67;;;4.53;;
17151;SDS011;8691;50.828;4.700;2023-05-10T08:32:37;6.00;;;4.33;;
17151;SDS011;8691;50.828;4.700;2023-05-10T08:35:03;8.10;;;5.00;;
17151;SDS011;8691;50.828;4.700;2023-05-10T08:37:30;9.33;;;4.50;;
17151;SDS011;8691;50.828;4.700;2023-05-10T08:39:57;8.17;;;4.77;;
17151;SDS011;8691;50.828;4.700;2023-05-10T08:42:24;7.93;;;5.27;;
17151;SDS011;8691;50.828;4.700;2023-05-10T08:44:51;5.37;;;4.43;;
17151;SDS011;8691;50.828;4.700;2023-05-10T08:47:18;5.20;;;3.93;;
17151;SDS011;8691;50.828;4.700;2023-05-10T08:49:45;5.27;;;4.77;;
17151;SDS011;8691;50.828;4.700;2023-05-10T08:52:12;5.00;;;4.00;;
17151;SDS011;8691;50.828;4.700;2023-05-10T08:54:39;5.77;;;4.27;;
17151;SDS011;8691;50.828;4.700;2023-05-10T08:57:06;5.67;;;4.07;;
17151;SDS011;8691;50.828;4.700;2023-05-10T08:59:33;5.07;;;4.10;;
17151;SDS011;8691;50.828;4.700;2023-05-10T09:01:59;4.60;;;4.07;;
17151;SDS011;8691;50.828;4.700;2023-05-10T09:04:26;7.20;;;3.57;;
17151;SDS011;8691;50.828;4.700;2023-05-10T09:06:52;4.23;;;3.40;;
17151;SDS011;8691;50.828;4.700;2023-05-10T09:09:19;4.10;;;3.70;;
17151;SDS011;8691;50.828;4.700;2023-05-10T09:11:46;4.07;;;3.67;;
17151;SDS011;8691;50.828;4.700;2023-05-10T09:14:12;3.67;;;2.83;;
17151;SDS011;8691;50.828;4.700;2023-05-10T09:16:39;9.63;;;6.37;;
17151;SDS011;8691;50.828;4.700;2023-05-10T09:19:05;3.37;;;3.07;;
17151;SDS011;8691;50.828;4.700;2023-05-10T09:21:32;3.43;;;2.63;;
17151;SDS011;8691;50.828;4.700;2023-05-10T09:24:02;4.50;;;3.17;;
17151;SDS011;8691;50.828;4.700;2023-05-10T09:26:26;4.37;;;3.63;;
17151;SDS011;8691;50.828;4.700;2023-05-10T09:28:56;4.60;;;3.42;;
17151;SDS011;8691;50.828;4.700;2023-05-10T09:31:19;3.70;;;2.88;;
17151;SDS011;8691;50.828;4.700;2023-05-10T09:33:46;3.10;;;2.43;;
17151;SDS011;8691;50.828;4.700;2023-05-10T09:36:13;2.70;;;2.50;;
17151;SDS011;8691;50.828;4.700;2023-05-10T09:38:45;2.87;;;2.60;;
17151;SDS011;8691;50.828;4.700;2023-05-10T09:41:19;2.90;;;2.60;;
17151;SDS011;8691;50.828;4.700;2023-05-10T09:43:41;2.57;;;2.37;;
17151;SDS011;8691;50.828;4.700;2023-05-10T09:46:11;2.50;;;2.30;;
17151;SDS011;8691;50.828;4.700;2023-05-10T09:48:44;2.40;;;2.20;;
17151;SDS011;8691;50.828;4.700;2023-05-10T09:51:10;2.37;;;2.17;;
17151;SDS011;8691;50.828;4.700;2023-05-10T09:53:36;2.70;;;2.13;;
17151;SDS011;8691;50.828;4.700;2023-05-10T09:56:03;1.93;;;1.80;;
17151;SDS011;8691;50.828;4.700;2023-05-10T09:58:30;6.07;;;1.80;;
17151;SDS011;8691;50.828;4.700;2023-05-10T10:00:57;2.37;;;1.60;;
17151;SDS011;8691;50.828;4.700;2023-05-10T10:03:24;1.80;;;1.50;;
17151;SDS011;8691;50.828;4.700;2023-05-10T10:05:51;1.67;;;1.50;;
17151;SDS011;8691;50.828;4.700;2023-05-10T10:08:18;1.57;;;1.40;;
17151;SDS011;8691;50.828;4.700;2023-05-10T10:10:45;1.40;;;1.30;;
17151;SDS011;8691;50.828;4.700;2023-05-10T10:13:12;1.57;;;1.47;;
17151;SDS011;8691;50.828;4.700;2023-05-10T10:15:39;2.00;;;1.33;;
17151;SDS011;8691;50.828;4.700;2023-05-10T10:18:06;1.33;;;1.20;;
17151;SDS011;8691;50.828;4.700;2023-05-10T10:20:33;1.37;;;1.27;;
17151;SDS011;8691;50.828;4.700;2023-05-10T10:23:00;2.10;;;1.90;;
17151;SDS011;8691;50.828;4.700;2023-05-10T10:25:26;1.70;;;1.60;;
17151;SDS011;8691;50.828;4.700;2023-05-10T10:30:25;1.50;;;1.40;;
17151;SDS011;8691;50.828;4.700;2023-05-10T10:35:58;1.50;;;1.40;;
17151;SDS011;8691;50.828;4.700;2023-05-10T10:38:22;1.27;;;1.17;;
17151;SDS011;8691;50.828;4.700;2023-05-10T10:40:49;1.80;;;1.40;;
17151;SDS011;8691;50.828;4.700;2023-05-10T10:43:26;1.77;;;1.30;;
17151;SDS011;8691;50.828;4.700;2023-05-10T10:48:40;1.27;;;1.10;;
17151;SDS011;8691;50.828;4.700;2023-05-10T10:51:15;1.20;;;1.10;;
17151;SDS011;8691;50.828;4.700;2023-05-10T10:53:42;1.17;;;1.10;;
17151;SDS011;8691;50.828;4.700;2023-05-10T10:56:10;1.23;;;1.13;;
17151;SDS011;8691;50.828;4.700;2023-05-10T10:58:38;1.20;;;1.00;;
17151;SDS011;8691;50.828;4.700;2023-05-10T11:01:10;1.50;;;1.10;;
17151;SDS011;8691;50.828;4.700;2023-05-10T11:03:54;3.30;;;1.10;;
17151;SDS011;8691;50.828;4.700;2023-05-10T11:06:08;2.40;;;1.10;;
17151;SDS011;8691;50.828;4.700;2023-05-10T11:08:41;2.08;;;1.10;;
17151;SDS011;8691;50.828;4.700;2023-05-10T11:11:06;0.60;;;0.60;;
17151;SDS011;8691;50.828;4.700;2023-05-10T11:13:41;1.17;;;0.90;;
17151;SDS011;8691;50.828;4.700;2023-05-10T11:16:11;0.93;;;0.90;;
17151;SDS011;8691;50.828;4.700;2023-05-10T11:19:05;3.37;;;1.97;;
17151;SDS011;8691;50.828;4.700;2023-05-10T11:21:31;2.03;;;1.40;;
17151;SDS011;8691;50.828;4.700;2023-05-10T11:23:58;1.40;;;1.30;;
17151;SDS011;8691;50.828;4.700;2023-05-10T11:26:24;1.20;;;1.10;;
17151;SDS011;8691;50.828;4.700;2023-05-10T11:28:50;1.40;;;0.70;;
17151;SDS011;8691;50.828;4.700;2023-05-10T11:31:17;0.87;;;0.87;;
17151;SDS011;8691;50.828;4.700;2023-05-10T11:33:44;0.60;;;0.60;;
17151;SDS011;8691;50.828;4.700;2023-05-10T11:36:12;1.15;;;1.00;;
17151;SDS011;8691;50.828;4.700;2023-05-10T11:38:40;1.40;;;1.00;;
17151;SDS011;8691;50.828;4.700;2023-05-10T11:41:10;0.70;;;0.70;;
17151;SDS011;8691;50.828;4.700;2023-05-10T11:43:40;0.60;;;0.60;;
17151;SDS011;8691;50.828;4.700;2023-05-10T11:46:10;1.40;;;0.70;;
17151;SDS011;8691;50.828;4.700;2023-05-10T11:48:36;1.40;;;0.70;;
17151;SDS011;8691;50.828;4.700;2023-05-10T11:51:03;1.13;;;0.70;;
17151;SDS011;8691;50.828;4.700;2023-05-10T11:53:30;4.00;;;0.93;;
17151;SDS011;8691;50.828;4.700;2023-05-10T11:56:02;0.70;;;0.70;;
17151;SDS011;8691;50.828;4.700;2023-05-10T11:58:22;1.13;;;0.80;;
17151;SDS011;8691;50.828;4.700;2023-05-10T12:00:50;1.00;;;0.70;;
17151;SDS011;8691;50.828;4.700;2023-05-10T12:03:17;0.97;;;0.87;;
17151;SDS011;8691;50.828;4.700;2023-05-10T12:05:44;1.33;;;1.00;;
17151;SDS011;8691;50.828;4.700;2023-05-10T12:08:14;1.00;;;0.97;;
17151;SDS011;8691;50.828;4.700;2023-05-10T12:10:40;1.27;;;1.17;;
17151;SDS011;8691;50.828;4.700;2023-05-10T12:13:13;1.17;;;1.07;;
17151;SDS011;8691;50.828;4.700;2023-05-10T12:15:42;2.23;;;1.00;;
17151;SDS011;8691;50.828;4.700;2023-05-10T12:18:09;0.90;;;0.90;;
17151;SDS011;8691;50.828;4.700;2023-05-10T12:20:35;1.10;;;1.00;;
17151;SDS011;8691;50.828;4.700;2023-05-10T12:23:02;1.33;;;1.20;;
17151;SDS011;8691;50.828;4.700;2023-05-10T12:25:33;2.12;;;1.00;;
17151;SDS011;8691;50.828;4.700;2023-05-10T12:27:56;1.93;;;1.00;;
17151;SDS011;8691;50.828;4.700;2023-05-10T12:30:24;1.10;;;1.00;;
17151;SDS011;8691;50.828;4.700;2023-05-10T12:32:50;1.37;;;1.10;;
17151;SDS011;8691;50.828;4.700;2023-05-10T12:35:17;2.00;;;1.20;;
17151;SDS011;8691;50.828;4.700;2023-05-10T12:37:43;1.00;;;1.00;;
17151;SDS011;8691;50.828;4.700;2023-05-10T12:40:11;1.30;;;1.20;;
17151;SDS011;8691;50.828;4.700;2023-05-10T12:42:38;1.10;;;1.00;;
17151;SDS011;8691;50.828;4.700;2023-05-10T12:45:05;0.97;;;0.97;;
17151;SDS011;8691;50.828;4.700;2023-05-10T12:47:32;1.00;;;0.90;;
17151;SDS011;8691;50.828;4.700;2023-05-10T12:49:59;1.03;;;0.93;;
17151;SDS011;8691;50.828;4.700;2023-05-10T12:52:25;0.90;;;0.90;;
17151;SDS011;8691;50.828;4.700;2023-05-10T12:54:52;1.60;;;1.10;;
17151;SDS011;8691;50.828;4.700;2023-05-10T12:57:22;0.90;;;0.90;;
17151;SDS011;8691;50.828;4.700;2023-05-10T12:59:49;0.95;;;0.90;;
17151;SDS011;8691;50.828;4.700;2023-05-10T13:02:16;1.10;;;1.00;;
17151;SDS011;8691;50.828;4.700;2023-05-10T13:04:45;1.10;;;1.00;;
17151;SDS011;8691;50.828;4.700;2023-05-10T13:07:12;0.80;;;0.80;;
17151;SDS011;8691;50.828;4.700;2023-05-10T13:09:39;1.37;;;0.93;;
17151;SDS011;8691;50.828;4.700;2023-05-10T13:12:06;1.10;;;1.00;;
17151;SDS011;8691;50.828;4.700;2023-05-10T13:14:32;2.77;;;1.20;;
17151;SDS011;8691;50.828;4.700;2023-05-10T13:16:59;1.20;;;1.10;;
17151;SDS011;8691;50.828;4.700;2023-05-10T13:19:26;1.17;;;1.03;;
17151;SDS011;8691;50.828;4.700;2023-05-10T13:21:52;1.47;;;1.30;;
17151;SDS011;8691;50.828;4.700;2023-05-10T13:24:20;1.20;;;1.10;;
17151;SDS011;8691;50.828;4.700;2023-05-10T13:26:46;1.50;;;1.17;;
17151;SDS011;8691;50.828;4.700;2023-05-10T13:29:13;1.63;;;1.30;;
17151;SDS011;8691;50.828;4.700;2023-05-10T13:31:40;2.13;;;1.33;;
17151;SDS011;8691;50.828;4.700;2023-05-10T13:34:06;1.37;;;1.27;;
17151;SDS011;8691;50.828;4.700;2023-05-10T13:36:33;1.43;;;1.33;;
17151;SDS011;8691;50.828;4.700;2023-05-10T13:39:00;1.50;;;1.40;;
17151;SDS011;8691;50.828;4.700;2023-05-10T13:41:27;1.50;;;1.40;;
17151;SDS011;8691;50.828;4.700;2023-05-10T13:43:54;1.50;;;1.40;;
17151;SDS011;8691;50.828;4.700;2023-05-10T13:46:20;1.60;;;1.50;;
17151;SDS011;8691;50.828;4.700;2023-05-10T13:48:48;2.27;;;1.40;;
17151;SDS011;8691;50.828;4.700;2023-05-10T13:51:14;1.23;;;1.13;;
17151;SDS011;8691;50.828;4.700;2023-05-10T13:53:42;3.40;;;1.30;;
17151;SDS011;8691;50.828;4.700;2023-05-10T13:56:08;1.43;;;1.33;;
17151;SDS011;8691;50.828;4.700;2023-05-10T13:58:36;1.60;;;1.50;;
17151;SDS011;8691;50.828;4.700;2023-05-10T14:01:02;1.77;;;1.67;;
17151;SDS011;8691;50.828;4.700;2023-05-10T14:03:30;2.33;;;1.47;;
17151;SDS011;8691;50.828;4.700;2023-05-10T14:05:56;1.47;;;1.37;;
17151;SDS011;8691;50.828;4.700;2023-05-10T14:08:24;2.43;;;1.60;;
17151;SDS011;8691;50.828;4.700;2023-05-10T14:10:50;2.40;;;2.20;;
17151;SDS011;8691;50.828;4.700;2023-05-10T14:13:17;2.83;;;2.03;;
17151;SDS011;8691;50.828;4.700;2023-05-10T14:15:43;2.73;;;2.27;;
17151;SDS011;8691;50.828;4.700;2023-05-10T14:18:10;4.77;;;2.60;;
17151;SDS011;8691;50.828;4.700;2023-05-10T14:20:37;3.00;;;2.10;;
17151;SDS011;8691;50.828;4.700;2023-05-10T14:23:04;5.17;;;2.17;;
17151;SDS011;8691;50.828;4.700;2023-05-10T14:25:31;3.10;;;2.50;;
17151;SDS011;8691;50.828;4.700;2023-05-10T14:27:58;2.20;;;1.93;;
17151;SDS011;8691;50.828;4.700;2023-05-10T14:30:25;2.63;;;2.43;;
17151;SDS011;8691;50.828;4.700;2023-05-10T14:32:51;2.83;;;2.47;;
17151;SDS011;8691;50.828;4.700;2023-05-10T14:35:18;3.03;;;2.30;;
17151;SDS011;8691;50.828;4.700;2023-05-10T14:37:45;2.63;;;2.43;;
17151;SDS011;8691;50.828;4.700;2023-05-10T14:40:11;3.40;;;2.70;;
17151;SDS011;8691;50.828;4.700;2023-05-10T14:42:38;5.00;;;2.40;;
17151;SDS011;8691;50.828;4.700;2023-05-10T14:45:05;2.60;;;2.40;;
17151;SDS011;8691;50.828;4.700;2023-05-10T14:47:31;4.47;;;2.70;;
17151;SDS011;8691;50.828;4.700;2023-05-10T14:49:58;2.60;;;2.40;;
17151;SDS011;8691;50.828;4.700;2023-05-10T14:52:25;2.40;;;2.20;;
17151;SDS011;8691;50.828;4.700;2023-05-10T14:54:52;3.67;;;2.70;;
17151;SDS011;8691;50.828;4.700;2023-05-10T14:57:18;3.17;;;2.77;;
17151;SDS011;8691;50.828;4.700;2023-05-10T14:59:45;3.78;;;3.38;;
17151;SDS011;8691;50.828;4.700;2023-05-10T15:02:12;5.55;;;3.70;;
17151;SDS011;8691;50.828;4.700;2023-05-10T15:04:40;5.33;;;3.77;;
17151;SDS011;8691;50.828;4.700;2023-05-10T15:07:08;5.55;;;4.30;;
17151;SDS011;8691;50.828;4.700;2023-05-10T15:09:34;5.12;;;4.53;;
17151;SDS011;8691;50.828;4.700;2023-05-10T15:12:01;5.33;;;4.50;;
17151;SDS011;8691;50.828;4.700;2023-05-10T15:14:28;7.33;;;4.90;;
17151;SDS011;8691;50.828;4.700;2023-05-10T15:16:55;5.82;;;5.15;;